createdAt,value
2018-09-19T00:01:28.422Z,23.50
2018-09-19T00:05:30.583Z,23.50
2018-09-19T00:09:32.774Z,23.70
2018-09-19T00:13:34.972Z,23.70
2018-09-19T00:17:37.157Z,23.80
2018-09-19T00:21:39.328Z,23.40
2018-09-19T00:25:41.628Z,23.10
2018-09-19T00:29:43.898Z,23.20
2018-09-19T00:33:46.023Z,23.60
2018-09-19T00:37:48.275Z,23.70
2018-09-19T00:41:50.463Z,24.00
2018-09-19T00:45:52.639Z,24.50
2018-09-19T00:49:54.776Z,24.40
2018-09-19T00:53:56.931Z,24.60
2018-09-19T00:57:59.316Z,24.70
2018-09-19T01:02:01.484Z,24.60
2018-09-19T01:06:03.665Z,24.50
2018-09-19T01:10:05.929Z,24.60
2018-09-19T01:14:08.076Z,24.50
2018-09-19T01:18:10.262Z,24.40
2018-09-19T01:22:12.491Z,24.20
2018-09-19T01:26:14.668Z,24.10
2018-09-19T01:30:16.835Z,24.00
2018-09-19T01:34:18.974Z,23.20
2018-09-19T01:38:21.139Z,23.50
2018-09-19T01:42:23.328Z,23.00
2018-09-19T01:46:25.647Z,23.20
2018-09-19T01:50:27.863Z,22.20
2018-09-19T01:54:30.030Z,22.70
2018-09-19T01:58:32.235Z,23.20
2018-09-19T02:02:34.402Z,23.40
2018-09-19T02:06:37.444Z,23.50
2018-09-19T02:10:39.659Z,23.70
2018-09-19T02:14:41.801Z,23.70
2018-09-19T02:18:43.966Z,23.50
2018-09-19T02:22:46.145Z,23.50
2018-09-19T02:26:48.334Z,23.30
2018-09-19T02:30:50.516Z,23.00
2018-09-19T02:34:52.694Z,22.90
2018-09-19T02:38:55.912Z,22.80
2018-09-19T02:42:58.053Z,23.00
2018-09-19T02:47:00.236Z,23.20
2018-09-19T02:51:02.395Z,23.20
2018-09-19T02:55:04.745Z,22.90
2018-09-19T02:59:06.927Z,22.80
2018-09-19T03:03:09.107Z,22.80
2018-09-19T03:07:11.341Z,22.80
2018-09-19T03:11:13.554Z,22.80
2018-09-19T03:15:15.760Z,22.70
2018-09-19T03:19:17.937Z,22.50
2018-09-19T03:23:20.768Z,22.30
2018-09-19T03:27:23.135Z,22.20
2018-09-19T03:31:25.306Z,22.50
2018-09-19T03:35:27.632Z,22.60
2018-09-19T03:39:29.729Z,22.70
2018-09-19T03:43:32.033Z,22.70
2018-09-19T03:47:34.213Z,22.50
2018-09-19T03:51:37.098Z,22.60
2018-09-19T03:55:39.299Z,22.40
2018-09-19T03:59:41.458Z,22.10
2018-09-19T04:03:43.614Z,22.30
2018-09-19T04:07:45.765Z,22.30
2018-09-19T04:11:47.928Z,21.90
2018-09-19T04:17:19.661Z,21.70
2018-09-19T04:21:21.837Z,21.20
2018-09-19T04:25:24.043Z,21.50
2018-09-19T04:29:26.206Z,21.70
2018-09-19T04:33:28.370Z,21.70
2018-09-19T04:37:30.556Z,21.70
2018-09-19T04:41:33.999Z,21.50
2018-09-19T04:45:36.259Z,21.60
2018-09-19T04:49:39.547Z,21.50
2018-09-19T04:53:41.711Z,21.50
2018-09-19T04:57:43.903Z,21.50
2018-09-19T05:01:46.107Z,21.60
2018-09-19T05:05:48.328Z,21.40
2018-09-19T05:09:50.558Z,21.20
2018-09-19T05:13:52.933Z,21.40
2018-09-19T05:17:55.147Z,21.50
2018-09-19T05:21:57.373Z,21.70
2018-09-19T05:25:59.539Z,21.80
2018-09-19T05:30:01.888Z,21.90
2018-09-19T05:34:04.063Z,21.80
2018-09-19T05:38:06.414Z,21.50
2018-09-19T05:42:08.643Z,21.80
2018-09-19T05:46:10.833Z,22.10
2018-09-19T05:50:13.035Z,22.20
2018-09-19T05:54:15.231Z,22.70
2018-09-19T05:58:17.530Z,22.50
2018-09-19T06:02:19.735Z,22.70
2018-09-19T06:06:21.965Z,22.80
2018-09-19T06:10:24.189Z,23.00
2018-09-19T06:14:26.374Z,23.30
2018-09-19T06:18:28.774Z,23.00
2018-09-19T06:22:30.998Z,23.00
2018-09-19T06:26:33.187Z,22.40
2018-09-19T06:30:35.417Z,23.80
2018-09-19T06:34:37.663Z,24.20
2018-09-19T06:38:39.806Z,24.60
2018-09-19T06:42:42.045Z,25.00
2018-09-19T06:46:44.229Z,25.20
2018-09-19T06:50:46.427Z,25.90
2018-09-19T06:54:48.669Z,26.00
2018-09-19T06:58:51.947Z,26.50
2018-09-19T07:02:55.183Z,27.10
2018-09-19T07:06:58.449Z,27.20
2018-09-19T07:11:01.280Z,27.80
2018-09-19T07:15:03.806Z,28.20
2018-09-19T07:19:06.236Z,28.30
2018-09-19T07:23:08.445Z,28.70
2018-09-19T07:27:10.636Z,29.10
2018-09-19T07:31:12.987Z,29.20
2018-09-19T07:35:15.112Z,29.70
2018-09-19T07:39:17.341Z,30.30
2018-09-19T07:43:19.559Z,30.50
2018-09-19T07:47:21.736Z,30.80
2018-09-19T07:51:23.945Z,30.60
2018-09-19T07:55:26.326Z,30.30
2018-09-19T07:59:28.415Z,28.40
2018-09-19T08:03:30.617Z,27.00
2018-09-19T08:07:32.913Z,27.10
2018-09-19T08:11:35.252Z,28.10
2018-09-19T08:15:37.384Z,27.40
2018-09-19T08:19:39.614Z,26.90
2018-09-19T08:23:41.866Z,27.80
2018-09-19T08:27:44.000Z,27.60
2018-09-19T08:31:46.908Z,28.00
2018-09-19T08:35:49.116Z,28.20
2018-09-19T08:39:51.456Z,28.70
2018-09-19T08:43:53.634Z,29.30
2018-09-19T08:47:56.031Z,30.10
2018-09-19T08:51:58.290Z,30.00
2018-09-19T08:56:00.470Z,30.30
2018-09-19T09:00:02.773Z,30.40
2018-09-19T09:04:05.091Z,29.40
2018-09-19T09:08:07.428Z,29.20
2018-09-19T09:12:09.676Z,29.40
2018-09-19T09:16:11.874Z,29.10
2018-09-19T09:20:14.132Z,30.00
2018-09-19T09:24:16.320Z,30.40
2018-09-19T09:28:18.528Z,30.40
2018-09-19T09:33:50.244Z,29.50
2018-09-19T09:37:52.447Z,28.80
2018-09-19T09:41:54.661Z,29.00
2018-09-19T09:45:57.754Z,29.80
2018-09-19T09:49:59.925Z,29.60
2018-09-19T09:54:02.139Z,29.90
2018-09-19T09:58:04.333Z,30.60
2018-09-19T10:02:06.572Z,30.50
2018-09-19T10:06:08.783Z,29.60
2018-09-19T10:10:11.010Z,29.40
2018-09-19T10:14:13.243Z,28.40
2018-09-19T10:18:15.438Z,29.00
2018-09-19T10:22:17.598Z,29.60
2018-09-19T10:26:19.949Z,30.50
2018-09-19T10:30:22.112Z,30.60
2018-09-19T10:34:24.274Z,30.50
2018-09-19T10:38:26.469Z,30.50
2018-09-19T10:43:58.325Z,30.00
2018-09-19T10:48:00.478Z,29.60
2018-09-19T10:52:02.682Z,30.90
2018-09-19T10:56:04.999Z,30.00
2018-09-19T11:00:07.731Z,30.20
2018-09-19T11:04:10.037Z,30.60
2018-09-19T11:08:12.238Z,30.30
2018-09-19T11:12:14.480Z,30.80
2018-09-19T11:16:16.650Z,30.90
2018-09-19T11:20:18.843Z,30.90
2018-09-19T11:24:21.013Z,30.10
2018-09-19T11:28:23.212Z,30.60
2018-09-19T11:32:25.539Z,30.50
2018-09-19T11:36:27.700Z,30.80
2018-09-19T11:40:30.002Z,31.10
2018-09-19T11:44:32.235Z,30.60
2018-09-19T11:48:34.904Z,31.20
2018-09-19T11:52:37.147Z,32.20
2018-09-19T11:56:40.006Z,31.80
2018-09-19T12:00:42.187Z,31.10
2018-09-19T12:04:44.412Z,32.00
2018-09-19T12:08:46.632Z,31.90
2018-09-19T12:12:48.871Z,31.50
2018-09-19T12:16:51.083Z,31.30
2018-09-19T12:20:53.294Z,31.80
2018-09-19T12:24:55.506Z,32.40
2018-09-19T12:28:57.671Z,31.30
2018-09-19T12:32:59.932Z,31.60
2018-09-19T12:37:02.139Z,32.10
2018-09-19T12:41:05.877Z,32.70
2018-09-19T12:45:08.707Z,32.10
2018-09-19T12:49:10.985Z,32.20
2018-09-19T12:53:13.293Z,34.00
2018-09-19T12:57:15.466Z,35.10
2018-09-19T13:01:17.612Z,34.60
2018-09-19T13:05:19.837Z,34.00
2018-09-19T13:09:22.011Z,35.50
2018-09-19T13:13:24.226Z,36.30
2018-09-19T13:17:26.430Z,35.70
2018-09-19T13:21:28.753Z,35.70
2018-09-19T13:25:31.103Z,35.30
2018-09-19T13:29:33.608Z,33.40
2018-09-19T13:33:35.837Z,33.20
2018-09-19T13:37:38.038Z,33.90
2018-09-19T13:41:41.242Z,33.80
2018-09-19T13:45:44.584Z,34.30
2018-09-19T13:49:52.670Z,35.30
2018-09-19T13:53:54.945Z,36.00
2018-09-19T13:57:58.139Z,34.40
2018-09-19T14:02:00.434Z,34.10
2018-09-19T14:06:02.832Z,34.30
2018-09-19T14:10:05.214Z,34.40
2018-09-19T14:14:07.516Z,33.50
2018-09-19T14:18:09.818Z,33.10
2018-09-19T14:22:12.027Z,33.10
2018-09-19T14:26:14.244Z,32.30
2018-09-19T14:30:16.481Z,32.60
2018-09-19T14:34:18.662Z,33.50
2018-09-19T14:38:20.955Z,33.60
2018-09-19T14:42:23.212Z,33.60
2018-09-19T14:46:25.428Z,32.40
2018-09-19T14:50:27.718Z,33.10
2018-09-19T14:54:30.067Z,32.70
2018-09-19T14:58:32.181Z,32.60
2018-09-19T15:02:34.422Z,31.70
2018-09-19T15:06:36.702Z,32.20
2018-09-19T15:10:38.984Z,30.80
2018-09-19T15:14:41.145Z,31.40
2018-09-19T15:18:43.357Z,31.10
2018-09-19T15:22:45.572Z,30.90
2018-09-19T15:26:47.878Z,32.20
2018-09-19T15:30:50.079Z,32.10
2018-09-19T15:34:52.972Z,31.30
2018-09-19T15:38:55.164Z,30.60
2018-09-19T15:42:57.463Z,30.80
2018-09-19T15:46:59.648Z,31.00
2018-09-19T15:51:01.914Z,31.40
2018-09-19T15:55:04.289Z,31.10
2018-09-19T15:59:06.516Z,31.20
2018-09-19T16:03:08.868Z,31.10
2018-09-19T16:07:11.158Z,31.20
2018-09-19T16:11:13.523Z,31.40
2018-09-19T16:15:15.831Z,31.20
2018-09-19T16:19:18.040Z,31.00
2018-09-19T16:23:20.213Z,31.50
2018-09-19T16:27:22.472Z,30.60
2018-09-19T16:31:24.780Z,30.50
2018-09-19T16:35:26.984Z,31.00
2018-09-19T16:39:29.808Z,30.40
2018-09-19T16:43:32.178Z,30.50
2018-09-19T16:47:34.464Z,30.80
2018-09-19T16:51:36.687Z,30.70
2018-09-19T16:55:38.994Z,30.40
2018-09-19T16:59:41.329Z,30.40
2018-09-19T17:03:43.641Z,30.80
2018-09-19T17:07:45.927Z,31.00
2018-09-19T17:11:48.403Z,30.40
2018-09-19T17:15:51.160Z,30.50
2018-09-19T17:19:54.413Z,30.20
2018-09-19T17:23:56.727Z,30.30
2018-09-19T17:27:58.901Z,30.00
2018-09-19T17:32:01.240Z,30.40
2018-09-19T17:36:03.904Z,30.40
2018-09-19T17:40:06.776Z,30.40
2018-09-19T17:44:09.042Z,30.10
2018-09-19T17:48:11.316Z,29.90
2018-09-19T17:52:13.601Z,29.70
2018-09-19T17:56:15.854Z,29.90
2018-09-19T18:00:18.276Z,29.80
2018-09-19T18:04:21.038Z,29.90
2018-09-19T18:08:24.083Z,30.00
2018-09-19T18:12:26.492Z,29.80
2018-09-19T18:16:28.918Z,29.70
2018-09-19T18:20:31.223Z,29.70
2018-09-19T18:24:33.455Z,29.50
2018-09-19T18:28:35.749Z,29.60
2018-09-19T18:32:38.011Z,29.40
2018-09-19T18:36:40.309Z,29.10
2018-09-19T18:40:42.801Z,28.80
2018-09-19T18:44:45.125Z,28.30
2018-09-19T18:48:47.323Z,28.40
2018-09-19T18:52:49.532Z,28.40
2018-09-19T18:56:52.178Z,28.10
2018-09-19T19:00:54.430Z,28.20
2018-09-19T19:04:57.819Z,27.80
2018-09-19T19:09:00.540Z,28.10
2018-09-19T19:13:02.720Z,28.40
2018-09-19T19:17:05.341Z,28.30
2018-09-19T19:21:07.616Z,28.40
2018-09-19T19:25:10.016Z,28.30
2018-09-19T19:29:12.235Z,28.00
2018-09-19T19:33:14.432Z,27.80
2018-09-19T19:37:17.423Z,28.10
2018-09-19T19:41:19.627Z,27.40
2018-09-19T19:45:22.684Z,27.80
2018-09-19T19:49:24.853Z,27.80
2018-09-19T19:53:27.235Z,27.80
2018-09-19T19:57:29.526Z,27.50
2018-09-19T20:01:31.723Z,27.90
2018-09-19T20:05:34.288Z,27.60
2018-09-19T20:09:36.529Z,27.80
2018-09-19T20:13:39.490Z,27.60
2018-09-19T20:17:41.758Z,27.90
2018-09-19T20:21:43.952Z,28.10
2018-09-19T20:25:46.209Z,28.10
2018-09-19T20:29:48.402Z,28.00
2018-09-19T20:33:50.609Z,27.70
2018-09-19T20:37:53.192Z,27.40
2018-09-19T20:41:55.367Z,26.90
2018-09-19T20:45:57.566Z,26.40
2018-09-19T20:49:59.807Z,26.60
2018-09-19T20:54:01.983Z,26.90
2018-09-19T20:58:04.167Z,27.00
2018-09-19T21:02:06.356Z,27.20
2018-09-19T21:06:08.524Z,27.20
2018-09-19T21:10:10.697Z,27.10
2018-09-19T21:14:12.896Z,26.90
2018-09-19T21:18:15.203Z,26.50
2018-09-19T21:22:17.592Z,26.60
2018-09-19T21:26:19.625Z,26.50
2018-09-19T21:30:21.824Z,26.30
2018-09-19T21:34:24.057Z,26.20
2018-09-19T21:38:26.189Z,26.00
2018-09-19T21:42:28.386Z,25.90
2018-09-19T21:46:30.533Z,26.20
2018-09-19T21:50:32.726Z,26.10
2018-09-19T21:54:34.920Z,26.00
2018-09-19T21:58:37.140Z,25.80
2018-09-19T22:02:39.461Z,25.90
2018-09-19T22:06:41.667Z,25.70
2018-09-19T22:10:43.849Z,25.50
2018-09-19T22:14:46.065Z,25.80
2018-09-19T22:18:48.319Z,25.80
2018-09-19T22:22:50.495Z,25.70
2018-09-19T22:26:52.686Z,25.60
2018-09-19T22:30:55.479Z,25.30
2018-09-19T22:34:57.702Z,25.20
2018-09-19T22:38:59.900Z,25.10
2018-09-19T22:43:02.218Z,24.80
2018-09-19T22:47:04.569Z,24.50
2018-09-19T22:51:06.832Z,24.60
2018-09-19T22:55:09.002Z,24.90
2018-09-19T22:59:11.159Z,25.00
2018-09-19T23:03:13.310Z,24.80
2018-09-19T23:07:15.512Z,24.80
2018-09-19T23:11:17.710Z,24.30
2018-09-19T23:15:19.877Z,24.20
2018-09-19T23:19:22.132Z,24.60
2018-09-19T23:23:24.315Z,24.70
2018-09-19T23:27:26.505Z,24.00
2018-09-19T23:31:28.715Z,23.80
2018-09-19T23:35:30.915Z,24.00
2018-09-19T23:39:33.125Z,24.10
2018-09-19T23:43:35.326Z,24.40
2018-09-19T23:47:37.535Z,24.50
2018-09-19T23:51:39.792Z,24.60
2018-09-19T23:55:41.988Z,24.70
2018-09-19T23:59:44.229Z,24.50
